Time;durP1;ratioP1;P1;durP2;ratioP2;P2;SDS_P1;SDS_P2;PMS_P1;PMS_P2;Temp;Humidity;BMP_temperature;BMP_pressure;BME280_temperature;BME280_humidity;BME280_pressure;Samples;Min_cycle;Max_cycle;Signal;HPM_P1;HPM_P2
2023/07/23 00:02:07;;;;;;;8.45;5.13;;;;;;;15.94;74.17;98683.56;4938909;28;20050;-73
2023/07/23 00:04:32;;;;;;;14.52;6.45;;;;;;;15.90;74.10;98679.56;4956189;28;20379;-76
2023/07/23 00:06:58;;;;;;;8.18;5.50;;;;;;;15.86;74.29;98693.47;4970908;28;20061;-73
2023/07/23 00:09:23;;;;;;;7.25;5.38;;;;;;;15.85;74.68;98681.88;4955960;28;20046;-71
2023/07/23 00:11:49;;;;;;;12.23;6.72;;;;;;;15.83;74.52;98699.19;4954274;28;20050;-72
2023/07/23 00:14:14;;;;;;;8.98;5.22;;;;;;;15.79;74.53;98695.16;4956219;28;20050;-70
2023/07/23 00:16:39;;;;;;;9.15;6.00;;;;;;;15.79;74.49;98704.06;4955274;28;20057;-72
2023/07/23 00:19:05;;;;;;;11.60;6.43;;;;;;;15.78;73.98;98686.25;4955829;28;20042;-73
2023/07/23 00:21:31;;;;;;;9.05;5.93;;;;;;;15.77;74.62;98683.72;4955750;28;20046;-72
2023/07/23 00:23:56;;;;;;;11.18;5.65;;;;;;;15.75;74.19;98691.13;4956002;28;20050;-72
2023/07/23 00:26:21;;;;;;;9.30;5.43;;;;;;;15.71;74.81;98685.22;4956096;28;20417;-73
2023/07/23 00:28:46;;;;;;;7.68;5.32;;;;;;;15.70;74.61;98678.16;4954262;28;20062;-72
2023/07/23 00:31:13;;;;;;;8.77;6.03;;;;;;;15.69;75.02;98681.03;4956128;28;20049;-71
2023/07/23 00:33:38;;;;;;;10.65;5.80;;;;;;;15.68;75.09;98673.97;4956418;28;20049;-72
2023/07/23 00:36:05;;;;;;;11.50;6.70;;;;;;;15.68;74.72;98680.19;4969521;28;20779;-72
2023/07/23 00:38:31;;;;;;;6.72;5.55;;;;;;;15.67;74.80;98700.00;4955211;28;20038;-72
2023/07/23 00:40:56;;;;;;;10.18;5.90;;;;;;;15.67;74.66;98680.34;4955670;28;20054;-74
2023/07/23 00:43:22;;;;;;;11.90;5.68;;;;;;;15.66;75.09;98681.38;4955846;28;20042;-75
2023/07/23 00:45:50;;;;;;;8.30;5.43;;;;;;;15.68;74.83;98679.34;4955481;28;20060;-75
2023/07/23 00:48:17;;;;;;;10.32;6.13;;;;;;;15.66;75.13;98687.56;4955871;28;20038;-73
2023/07/23 00:50:45;;;;;;;14.13;6.80;;;;;;;15.64;74.94;98694.13;4954211;28;20061;-74
2023/07/23 00:53:10;;;;;;;11.00;5.72;;;;;;;15.62;74.50;98686.22;4956176;28;20046;-74
2023/07/23 00:55:36;;;;;;;9.80;5.82;;;;;;;15.58;74.77;98668.72;4951328;28;20417;-73
2023/07/23 00:58:03;;;;;;;9.10;5.15;;;;;;;15.55;74.52;98675.31;4969786;28;20661;-73
2023/07/23 01:00:28;;;;;;;12.90;5.97;;;;;;;15.51;74.57;98678.44;4955760;28;20050;-68
2023/07/23 01:02:56;;;;;;;9.65;5.95;;;;;;;15.45;74.90;98681.78;4970398;28;20046;-70
2023/07/23 01:05:22;;;;;;;16.60;6.40;;;;;;;15.42;75.24;98680.28;4970713;28;20053;-69
2023/07/23 01:07:48;;;;;;;11.95;6.38;;;;;;;15.37;75.31;98682.59;4955215;28;20501;-69
2023/07/23 01:10:14;;;;;;;12.20;5.97;;;;;;;15.34;75.56;98682.94;4955774;28;20421;-68
2023/07/23 01:12:40;;;;;;;8.85;5.22;;;;;;;15.33;76.02;98681.25;4955545;28;20038;-70
2023/07/23 01:15:06;;;;;;;7.20;5.40;;;;;;;15.33;75.41;98681.25;4954622;28;20042;-69
2023/07/23 01:17:38;;;;;;;9.48;5.32;;;;;;;15.36;75.59;98693.50;4952164;28;20042;-69
2023/07/23 01:20:07;;;;;;;12.13;5.32;;;;;;;15.36;74.94;98697.00;4957334;28;20047;-67
2023/07/23 01:22:35;;;;;;;12.55;5.28;;;;;;;15.37;74.86;98696.00;4962225;28;20031;-69
2023/07/23 01:25:03;;;;;;;9.68;5.43;;;;;;;15.35;75.48;98706.06;4957745;28;20406;-69
2023/07/23 01:27:30;;;;;;;10.07;5.22;;;;;;;15.36;75.47;98686.28;4968437;28;20047;-69
2023/07/23 01:29:55;;;;;;;11.60;5.07;;;;;;;15.38;75.13;98699.53;4953849;28;20042;-69
2023/07/23 01:32:21;;;;;;;10.00;5.00;;;;;;;15.40;75.10;98682.28;4966856;28;20038;-69
2023/07/23 01:34:46;;;;;;;9.00;4.90;;;;;;;15.42;74.91;98690.16;4945993;28;20046;-69
2023/07/23 01:37:15;;;;;;;6.30;5.05;;;;;;;15.43;74.58;98681.09;4952660;28;20046;-67
2023/07/23 01:39:42;;;;;;;10.80;5.50;;;;;;;15.43;75.25;98698.06;4969995;28;20038;-66
2023/07/23 01:42:11;;;;;;;13.75;5.97;;;;;;;15.43;75.74;98692.69;4954371;28;20413;-67
2023/07/23 01:44:37;;;;;;;11.95;5.88;;;;;;;15.42;75.49;98695.53;4954127;28;20050;-66
2023/07/23 01:47:03;;;;;;;8.93;5.53;;;;;;;15.44;75.23;98691.69;4953327;28;20046;-67
2023/07/23 01:49:28;;;;;;;9.15;5.63;;;;;;;15.45;75.31;98697.91;4957828;28;20065;-67
2023/07/23 01:51:55;;;;;;;9.65;5.10;;;;;;;15.45;75.12;98688.00;4972892;28;20038;-65
2023/07/23 01:54:21;;;;;;;8.98;5.35;;;;;;;15.46;75.44;98699.59;4973123;28;20054;-66
2023/07/23 01:56:48;;;;;;;8.38;5.15;;;;;;;15.49;75.72;98691.19;4957813;28;20046;-66
2023/07/23 01:59:14;;;;;;;12.32;5.63;;;;;;;15.49;76.02;98713.50;4972801;28;20062;-66
2023/07/23 02:01:40;;;;;;;7.80;5.60;;;;;;;15.51;76.07;98679.28;4967990;28;20429;-68
2023/07/23 02:04:05;;;;;;;8.07;4.95;;;;;;;15.54;75.95;98673.63;4960264;28;20050;-66
2023/07/23 02:06:30;;;;;;;11.15;6.28;;;;;;;15.55;75.44;98682.50;4956734;28;20049;-66
2023/07/23 02:08:56;;;;;;;9.60;5.65;;;;;;;15.53;75.05;98677.28;4956419;28;20053;-66
2023/07/23 02:11:21;;;;;;;7.18;5.20;;;;;;;15.48;75.19;98690.34;4973017;28;20045;-66
2023/07/23 02:13:46;;;;;;;6.53;4.95;;;;;;;15.48;75.34;98684.13;4971815;28;20046;-66
2023/07/23 02:16:19;;;;;;;8.00;4.53;;;;;;;15.53;75.54;98685.34;4957438;28;20042;-66
2023/07/23 02:18:45;;;;;;;8.50;5.43;;;;;;;15.54;75.49;98684.38;4970572;28;20046;-64
2023/07/23 02:21:12;;;;;;;10.80;4.82;;;;;;;15.55;75.80;98674.47;4972638;28;20053;-66
2023/07/23 02:23:37;;;;;;;6.80;5.30;;;;;;;15.57;75.83;98681.34;4947390;28;20054;-66
2023/07/23 02:26:02;;;;;;;9.80;5.63;;;;;;;15.59;75.70;98676.63;4954076;28;20077;-66
2023/07/23 02:28:27;;;;;;;8.40;4.75;;;;;;;15.64;75.61;98680.69;4966446;28;20050;-66
2023/07/23 02:30:58;;;;;;;8.40;4.97;;;;;;;15.66;75.12;98690.25;4945192;28;20054;-73
2023/07/23 02:33:27;;;;;;;9.40;4.88;;;;;;;15.68;75.43;98690.09;4956751;28;20034;-67
2023/07/23 02:35:52;;;;;;;8.05;4.95;;;;;;;15.67;74.83;98689.25;4955773;28;20057;-66
2023/07/23 02:38:17;;;;;;;8.98;4.93;;;;;;;15.64;74.82;98694.97;4956345;28;20050;-67
2023/07/23 02:40:43;;;;;;;7.70;5.15;;;;;;;15.61;74.88;98690.75;4957199;28;20522;-69
2023/07/23 02:43:12;;;;;;;8.82;4.82;;;;;;;15.60;74.94;98691.75;4957143;28;20034;-63
2023/07/23 02:45:39;;;;;;;6.90;5.15;;;;;;;15.63;75.49;98687.06;4940120;28;20054;-64
2023/07/23 02:48:05;;;;;;;9.05;4.80;;;;;;;15.65;75.30;98693.94;4957533;28;20058;-63
2023/07/23 02:50:30;;;;;;;8.32;4.70;;;;;;;15.68;75.22;98695.47;4957811;28;20046;-65
2023/07/23 02:52:55;;;;;;;6.60;4.32;;;;;;;15.72;75.50;98696.81;4957577;28;20038;-65
2023/07/23 02:55:23;;;;;;;9.27;4.75;;;;;;;15.75;75.08;98705.41;4953069;28;20046;-64
2023/07/23 02:57:49;;;;;;;10.00;5.00;;;;;;;15.80;75.72;98689.59;4936873;28;20651;-65
2023/07/23 03:00:14;;;;;;;6.55;4.65;;;;;;;15.87;75.38;98684.41;4971764;28;20057;-66
2023/07/23 03:02:40;;;;;;;10.02;4.32;;;;;;;15.91;75.23;98675.03;4972523;28;20527;-66
2023/07/23 03:05:05;;;;;;;8.63;4.97;;;;;;;15.98;75.14;98678.72;4956376;28;20054;-66
2023/07/23 03:07:34;;;;;;;4.57;3.83;;;;;;;16.11;75.18;98654.00;4971524;28;20054;-67
2023/07/23 03:10:00;;;;;;;7.80;5.07;;;;;;;16.26;74.61;98682.72;4971967;28;20521;-66
2023/07/23 03:12:25;;;;;;;6.28;4.18;;;;;;;16.37;74.47;98686.06;4972289;28;20042;-67
2023/07/23 03:14:50;;;;;;;10.38;4.97;;;;;;;16.46;74.14;98687.78;4957251;28;20042;-71
2023/07/23 03:17:17;;;;;;;9.15;4.90;;;;;;;16.57;73.35;98687.44;4957263;28;20046;-69
2023/07/23 03:19:42;;;;;;;6.55;4.32;;;;;;;16.69;72.65;98686.09;4971702;28;20046;-71
2023/07/23 03:22:08;;;;;;;6.15;4.57;;;;;;;16.72;72.03;98674.13;4972247;28;20057;-71
2023/07/23 03:24:33;;;;;;;6.38;4.57;;;;;;;16.72;71.88;98684.88;4972187;28;20042;-69
2023/07/23 03:26:58;;;;;;;9.05;5.53;;;;;;;16.84;72.07;98686.19;4971980;28;20425;-70
2023/07/23 03:29:24;;;;;;;7.93;4.55;;;;;;;16.99;71.50;98687.16;4954107;28;20050;-70
2023/07/23 03:31:51;;;;;;;8.45;4.65;;;;;;;17.19;71.28;98687.59;4938966;28;20054;-70
2023/07/23 03:34:16;;;;;;;9.30;4.68;;;;;;;17.30;70.31;98716.84;4957180;28;20042;-70
2023/07/23 03:36:42;;;;;;;5.43;4.18;;;;;;;17.37;69.83;98701.69;4955759;28;20394;-70
2023/07/23 03:39:08;;;;;;;7.72;4.80;;;;;;;17.34;69.42;98680.47;4939825;28;20050;-70
2023/07/23 03:41:58;;;;;;;6.35;4.53;;;;;;;17.42;69.80;98678.56;4955122;28;20058;-69
2023/07/23 03:44:24;;;;;;;8.00;4.18;;;;;;;17.33;69.37;98676.09;4956956;28;20043;-69
2023/07/23 03:47:11;;;;;;;7.93;4.47;;;;;;;17.39;69.71;98675.38;4940045;28;20054;-70
2023/07/23 03:49:36;;;;;;;5.85;4.53;;;;;;;17.32;69.41;98661.78;4940311;28;20042;-68
2023/07/23 03:52:02;;;;;;;9.30;4.40;;;;;;;17.35;69.47;98672.22;4956558;28;20049;-69
2023/07/23 03:54:27;;;;;;;6.88;4.07;;;;;;;17.40;69.29;98675.19;4939128;28;20532;-68
2023/07/23 03:56:55;;;;;;;6.63;4.25;;;;;;;17.48;69.72;98682.41;4940523;28;20049;-70
2023/07/23 03:59:28;;;;;;;5.43;3.95;;;;;;;17.64;69.48;98687.72;4939444;28;20054;-69
2023/07/23 04:01:53;;;;;;;5.97;4.30;;;;;;;17.91;69.22;98672.91;4941285;28;20057;-67
2023/07/23 04:04:18;;;;;;;9.75;4.25;;;;;;;18.11;67.98;98686.72;4952077;28;20053;-69
2023/07/23 04:06:43;;;;;;;6.43;4.13;;;;;;;18.31;67.56;98674.41;4919964;28;20050;-69
2023/07/23 04:09:08;;;;;;;8.65;4.20;;;;;;;18.43;66.72;98688.31;4937190;28;20057;-68
2023/07/23 04:11:34;;;;;;;5.43;3.90;;;;;;;18.48;66.47;98673.25;4937274;28;20065;-68
2023/07/23 04:13:59;;;;;;;8.23;4.25;;;;;;;18.50;66.14;98668.53;4953445;28;20038;-70
2023/07/23 04:16:24;;;;;;;8.38;4.28;;;;;;;18.75;66.15;98676.38;4956358;28;20068;-69
2023/07/23 04:18:59;;;;;;;6.03;3.70;;;;;;;19.11;65.21;98681.88;4956718;28;20055;-70
2023/07/23 04:21:25;;;;;;;9.00;4.75;;;;;;;19.42;64.18;98677.09;4954473;28;20057;-69
2023/07/23 04:23:55;;;;;;;6.05;3.97;;;;;;;19.49;62.82;98677.22;4955851;28;20409;-70
2023/07/23 04:26:21;;;;;;;6.30;4.10;;;;;;;19.38;62.74;98678.50;4956380;28;20046;-69
2023/07/23 04:28:47;;;;;;;10.07;4.72;;;;;;;19.12;63.33;98684.41;4954164;28;20050;-69
2023/07/23 04:31:13;;;;;;;5.13;4.00;;;;;;;19.04;63.20;98681.81;4971318;28;20041;-69
2023/07/23 04:33:38;;;;;;;8.02;4.88;;;;;;;19.10;63.65;98701.81;4971240;28;20042;-69
2023/07/23 04:36:06;;;;;;;8.70;4.05;;;;;;;19.27;63.10;98683.56;4971169;28;20050;-68
2023/07/23 04:38:48;;;;;;;7.32;3.85;;;;;;;19.44;62.20;98676.91;4955895;28;20090;-69
2023/07/23 04:41:14;;;;;;;6.72;5.03;;;;;;;19.62;61.93;98684.66;4954819;28;20065;-69
2023/07/23 04:43:41;;;;;;;6.22;4.07;;;;;;;19.83;61.45;98685.50;4955686;28;20049;-69
2023/07/23 04:46:06;;;;;;;9.75;4.60;;;;;;;20.15;61.00;98669.78;4954660;28;20054;-69
2023/07/23 04:48:34;;;;;;;6.78;3.92;;;;;;;20.51;59.89;98669.72;4955847;28;20034;-69
2023/07/23 04:51:02;;;;;;;8.77;4.07;;;;;;;20.88;59.03;98676.66;4955840;28;20050;-69
2023/07/23 04:53:29;;;;;;;7.20;4.30;;;;;;;21.16;58.10;98679.31;4938736;28;20049;-70
2023/07/23 04:55:55;;;;;;;7.70;4.22;;;;;;;21.47;56.83;98676.97;4955696;28;20497;-69
2023/07/23 04:58:22;;;;;;;5.97;4.82;;;;;;;21.83;55.94;98668.53;4955631;28;20046;-70
2023/07/23 05:00:47;;;;;;;7.28;4.07;;;;;;;22.16;55.23;98660.47;4955770;28;20061;-70
2023/07/23 05:03:38;;;;;;;6.60;3.95;;;;;;;22.47;54.09;98657.13;4955918;28;20461;-70
2023/07/23 05:06:04;;;;;;;5.72;3.85;;;;;;;22.74;53.32;98653.34;4955640;28;20038;-70
2023/07/23 05:08:30;;;;;;;4.85;3.75;;;;;;;22.93;52.82;98650.84;4955794;28;20049;-69
2023/07/23 05:11:00;;;;;;;6.55;3.80;;;;;;;23.23;52.10;98656.63;4955761;28;20049;-69
2023/07/23 05:13:26;;;;;;;5.97;3.60;;;;;;;23.59;51.21;98639.75;4970137;28;20061;-70
2023/07/23 05:15:51;;;;;;;5.32;3.80;;;;;;;24.08;49.95;98645.31;4955556;28;20054;-70
2023/07/23 05:18:16;;;;;;;6.00;4.28;;;;;;;24.27;49.16;98648.16;4953892;28;20054;-68
2023/07/23 05:20:41;;;;;;;6.13;3.88;;;;;;;24.59;49.12;98636.97;4955704;28;20050;-70
2023/07/23 05:23:06;;;;;;;9.00;3.95;;;;;;;25.19;47.59;98641.81;4959152;28;20413;-70
2023/07/23 05:25:31;;;;;;;8.13;4.38;;;;;;;25.43;46.50;98665.44;4959278;28;20053;-69
2023/07/23 05:27:57;;;;;;;6.85;3.67;;;;;;;25.40;45.93;98633.13;4957562;28;20046;-71
2023/07/23 05:30:23;;;;;;;4.68;3.63;;;;;;;25.02;46.22;98632.56;4958108;28;20046;-70
2023/07/23 05:32:50;;;;;;;5.97;3.75;;;;;;;24.65;47.07;98635.22;4974828;28;20050;-70
2023/07/23 05:35:16;;;;;;;5.82;3.47;;;;;;;24.27;47.79;98637.25;4959267;28;20460;-69
2023/07/23 05:37:41;;;;;;;4.32;3.92;;;;;;;23.88;48.83;98633.72;4958808;28;20038;-70
2023/07/23 05:40:07;;;;;;;5.45;3.70;;;;;;;23.61;49.27;98633.03;4958020;28;20057;-70
2023/07/23 05:42:32;;;;;;;10.60;4.00;;;;;;;23.22;50.14;98654.94;4958991;28;20039;-70
2023/07/23 05:44:57;;;;;;;5.30;3.85;;;;;;;22.78;51.11;98632.06;4958974;28;20050;-70
2023/07/23 05:47:23;;;;;;;4.75;3.50;;;;;;;22.49;52.05;98644.19;4959327;28;20034;-70
2023/07/23 05:49:48;;;;;;;7.13;3.85;;;;;;;22.22;52.38;98637.09;4957710;28;20413;-69
2023/07/23 05:52:15;;;;;;;8.57;3.47;;;;;;;21.99;53.11;98648.38;4974124;28;20042;-70
2023/07/23 05:54:40;;;;;;;4.47;3.72;;;;;;;21.80;53.78;98638.25;4958629;28;20061;-70
2023/07/23 05:57:06;;;;;;;5.72;3.80;;;;;;;21.66;53.83;98637.41;4957781;28;20053;-70
2023/07/23 05:59:31;;;;;;;6.63;3.50;;;;;;;21.48;53.68;98639.84;4958865;28;20062;-70
2023/07/23 06:01:56;;;;;;;6.03;3.78;;;;;;;21.26;54.39;98636.44;4958739;28;20072;-70
2023/07/23 06:04:21;;;;;;;6.63;3.80;;;;;;;21.10;54.77;98643.00;4958765;28;20050;-70
2023/07/23 06:06:47;;;;;;;6.00;3.72;;;;;;;21.03;54.94;98648.38;4958435;28;20072;-70
2023/07/23 06:09:12;;;;;;;9.70;3.95;;;;;;;21.02;55.59;98646.72;4958806;28;20053;-69
2023/07/23 06:11:37;;;;;;;7.13;4.25;;;;;;;20.92;55.92;98646.25;4958551;28;20050;-69
2023/07/23 06:14:02;;;;;;;5.47;4.28;;;;;;;20.83;56.52;98652.03;4957315;28;20034;-69
2023/07/23 06:16:30;;;;;;;6.53;4.30;;;;;;;20.81;56.50;98664.91;4958537;28;20053;-68
2023/07/23 06:18:55;;;;;;;6.75;3.65;;;;;;;20.79;57.01;98667.81;4958235;28;20053;-68
2023/07/23 06:21:22;;;;;;;5.97;3.90;;;;;;;20.95;57.25;98650.44;4957324;28;20046;-68
2023/07/23 06:23:47;;;;;;;5.78;4.05;;;;;;;21.16;57.46;98646.78;4973468;28;20087;-69
2023/07/23 06:26:13;;;;;;;4.97;3.88;;;;;;;21.35;56.73;98655.03;4973209;28;20054;-69
2023/07/23 06:28:40;;;;;;;7.05;4.18;;;;;;;21.52;56.65;98646.53;4958045;28;20509;-69
2023/07/23 06:31:05;;;;;;;6.80;4.65;;;;;;;21.73;56.59;98639.09;4957784;28;20050;-70
2023/07/23 06:33:30;;;;;;;7.95;4.40;;;;;;;21.94;56.10;98646.22;4955252;28;20041;-69
2023/07/23 06:35:56;;;;;;;10.75;4.30;;;;;;;22.02;55.49;98631.66;4957078;28;20996;-69
2023/07/23 06:38:21;;;;;;;6.07;3.80;;;;;;;22.06;54.88;98654.63;4958491;28;20477;-70
2023/07/23 06:40:56;;;;;;;9.40;4.88;;;;;;;21.80;55.70;98644.53;4960856;28;20054;-67
2023/07/23 06:43:23;;;;;;;7.80;4.57;;;;;;;21.45;56.24;98646.50;4984611;28;20042;-67
2023/07/23 06:45:51;;;;;;;8.23;4.25;;;;;;;21.22;57.26;98654.16;4965369;28;20164;-68
2023/07/23 06:48:18;;;;;;;6.80;4.70;;;;;;;20.89;58.52;98646.63;4953308;28;20535;-67
2023/07/23 06:50:47;;;;;;;6.25;4.15;;;;;;;20.79;59.23;98646.16;4940822;28;20559;-68
2023/07/23 06:53:14;;;;;;;7.30;4.45;;;;;;;20.78;59.76;98641.78;4957926;28;20042;-68
2023/07/23 06:56:01;;;;;;;8.40;4.82;;;;;;;21.02;58.97;98651.28;4974049;28;20046;-67
2023/07/23 06:58:28;;;;;;;7.35;4.45;;;;;;;20.75;59.62;98652.19;4957812;28;20054;-68
2023/07/23 07:00:54;;;;;;;9.20;4.60;;;;;;;20.72;59.71;98660.69;4956355;28;20046;-69
2023/07/23 07:03:19;;;;;;;9.82;4.22;;;;;;;20.73;59.60;98673.22;4956243;28;20046;-66
2023/07/23 07:05:45;;;;;;;7.72;4.60;;;;;;;20.86;60.00;98646.22;4957587;28;20049;-68
2023/07/23 07:08:10;;;;;;;5.47;4.38;;;;;;;20.99;59.53;98640.88;4955942;28;20046;-68
2023/07/23 07:10:35;;;;;;;9.32;4.90;;;;;;;21.12;59.48;98637.38;4972754;28;20484;-67
2023/07/23 07:13:00;;;;;;;14.45;4.85;;;;;;;21.24;59.38;98660.19;4957611;28;20061;-67
2023/07/23 07:15:26;;;;;;;7.97;5.07;;;;;;;21.43;59.38;98643.19;4957488;28;20042;-67
2023/07/23 07:17:52;;;;;;;9.77;4.47;;;;;;;21.57;58.97;98644.88;4957330;28;20513;-69
2023/07/23 07:20:17;;;;;;;8.07;4.50;;;;;;;21.55;58.63;98625.28;4955499;28;20413;-69
2023/07/23 07:22:42;;;;;;;6.03;4.30;;;;;;;21.56;59.13;98666.78;4957092;28;20050;-70
2023/07/23 07:25:07;;;;;;;7.15;4.35;;;;;;;21.70;58.76;98644.91;4955390;28;20058;-68
2023/07/23 07:27:33;;;;;;;6.80;4.60;;;;;;;21.94;58.25;98597.38;4957406;28;20050;-70
2023/07/23 07:29:58;;;;;;;9.18;4.43;;;;;;;22.18;57.02;98633.97;4957125;28;20077;-69
2023/07/23 07:32:24;;;;;;;4.93;4.00;;;;;;;22.37;56.41;98635.00;4957254;28;20053;-72
2023/07/23 07:34:49;;;;;;;7.45;5.47;;;;;;;22.77;55.42;98635.84;4957905;28;20046;-68
2023/07/23 07:37:14;;;;;;;8.85;4.40;;;;;;;23.87;54.06;98643.78;4957383;28;20057;-69
2023/07/23 07:39:40;;;;;;;5.13;4.43;;;;;;;24.76;50.94;98631.75;4958839;28;20045;-70
2023/07/23 07:42:06;;;;;;;5.18;3.95;;;;;;;25.15;48.75;98621.50;4958113;28;20054;-70
2023/07/23 07:44:35;;;;;;;5.97;4.13;;;;;;;25.08;48.77;98621.56;4957348;28;20057;-67
2023/07/23 07:47:00;;;;;;;6.45;4.38;;;;;;;24.63;48.81;98620.97;4972026;28;20065;-69
2023/07/23 07:49:25;;;;;;;5.57;4.00;;;;;;;24.54;49.08;98620.44;4956877;28;20046;-70
2023/07/23 07:51:50;;;;;;;8.50;4.50;;;;;;;25.00;49.02;98618.31;4957320;28;20050;-68
2023/07/23 07:54:17;;;;;;;4.35;3.80;;;;;;;26.19;47.98;98604.72;4956554;28;20043;-69
2023/07/23 07:56:43;;;;;;;7.03;4.00;;;;;;;26.89;44.97;98609.41;4955787;28;20393;-70
2023/07/23 07:59:09;;;;;;;5.55;4.22;;;;;;;26.95;43.76;98613.97;4954881;28;20053;-70
2023/07/23 08:01:34;;;;;;;7.72;4.00;;;;;;;26.70;44.44;98619.66;4956486;28;20532;-69
2023/07/23 08:04:01;;;;;;;5.55;4.10;;;;;;;26.70;44.19;98611.44;4956449;28;20042;-69
2023/07/23 08:06:27;;;;;;;4.10;3.80;;;;;;;27.24;41.65;98625.78;4956379;28;20524;-68
2023/07/23 08:08:57;;;;;;;6.50;3.85;;;;;;;28.45;40.35;98619.91;4954713;28;20057;-69
2023/07/23 08:11:23;;;;;;;4.20;3.80;;;;;;;28.88;38.74;98621.97;4971400;28;20042;-69
2023/07/23 08:13:49;;;;;;;8.55;3.65;;;;;;;28.98;38.41;98640.50;4956113;28;20061;-69
2023/07/23 08:16:16;;;;;;;4.47;4.07;;;;;;;29.74;37.30;98627.75;4954546;28;20050;-69
2023/07/23 08:18:44;;;;;;;4.93;3.95;;;;;;;30.44;36.16;98615.81;4954904;28;20523;-68
2023/07/23 08:21:09;;;;;;;7.07;4.82;;;;;;;31.23;35.73;98639.78;4971400;28;20049;-68
2023/07/23 08:23:35;;;;;;;5.32;3.80;;;;;;;31.63;34.49;98634.44;4956043;28;20042;-68
2023/07/23 08:26:02;;;;;;;4.68;3.97;;;;;;;30.86;34.38;98613.09;4971155;28;20049;-68
2023/07/23 08:28:29;;;;;;;5.32;4.05;;;;;;;30.01;35.79;98640.72;4956059;28;20042;-70
2023/07/23 08:31:00;;;;;;;4.25;3.63;;;;;;;29.39;36.82;98617.19;4955870;28;20054;-70
2023/07/23 08:33:30;;;;;;;4.15;3.85;;;;;;;29.44;37.30;98616.44;4970922;28;20034;-70
2023/07/23 08:35:57;;;;;;;4.18;3.78;;;;;;;30.63;35.44;98603.31;4955769;28;20073;-70
2023/07/23 08:38:23;;;;;;;5.15;4.03;;;;;;;33.03;32.77;98614.69;4955887;28;20046;-70
2023/07/23 08:40:56;;;;;;;4.40;4.00;;;;;;;34.75;30.34;98557.53;4956069;28;20053;-69
2023/07/23 08:43:33;;;;;;;4.40;4.00;;;;;;;34.63;30.55;98548.78;4955776;28;20536;-69
2023/07/23 08:46:04;;;;;;;4.80;3.97;;;;;;;33.70;31.33;98552.53;4955794;28;20054;-69
2023/07/23 08:48:56;;;;;;;4.57;3.88;;;;;;;32.04;32.33;98601.47;4955665;28;20053;-70
2023/07/23 08:51:30;;;;;;;6.13;4.00;;;;;;;30.28;35.24;98608.50;4955815;28;20057;-70
2023/07/23 08:53:57;;;;;;;5.18;4.20;;;;;;;28.97;37.53;98627.03;4970887;28;20034;-69
2023/07/23 08:56:22;;;;;;;4.70;3.67;;;;;;;28.35;38.56;98596.97;4938611;28;20410;-69
2023/07/23 08:58:48;;;;;;;6.50;3.70;;;;;;;27.87;39.83;98601.06;4959717;28;20061;-71
2023/07/23 09:01:15;;;;;;;4.00;3.60;;;;;;;27.57;40.12;98595.84;4974891;28;20042;-69
2023/07/23 09:03:40;;;;;;;6.65;3.90;;;;;;;27.16;41.20;98593.34;4958360;28;20046;-70
2023/07/23 09:06:05;;;;;;;5.63;3.63;;;;;;;26.66;41.93;98593.84;4957992;28;20061;-70
2023/07/23 09:08:31;;;;;;;4.53;4.13;;;;;;;25.88;43.01;98597.66;4958304;28;20054;-70
2023/07/23 09:10:56;;;;;;;7.47;3.97;;;;;;;25.36;44.62;98604.66;4959668;28;20050;-69
2023/07/23 09:13:32;;;;;;;6.60;4.25;;;;;;;25.19;45.21;98607.19;4959569;28;20038;-69
2023/07/23 09:15:58;;;;;;;5.60;4.72;;;;;;;24.88;45.67;98596.41;4959687;28;20058;-69
2023/07/23 09:18:23;;;;;;;4.50;4.10;;;;;;;24.82;45.64;98605.50;4957700;28;20061;-69
2023/07/23 09:20:49;;;;;;;8.48;5.05;;;;;;;24.20;46.75;98599.97;4959480;28;20197;-69
2023/07/23 09:23:14;;;;;;;4.55;3.88;;;;;;;23.68;47.95;98605.81;4958272;28;20846;-68
2023/07/23 09:25:43;;;;;;;4.90;3.95;;;;;;;23.27;49.45;98609.72;4959449;28;20054;-68
2023/07/23 09:28:09;;;;;;;5.60;4.35;;;;;;;23.03;50.26;98608.56;4959489;28;20054;-69
2023/07/23 09:30:34;;;;;;;5.10;4.20;;;;;;;22.80;50.96;98611.75;4974618;28;20050;-69
2023/07/23 09:33:02;;;;;;;6.70;5.10;;;;;;;22.70;52.05;98614.06;4957940;28;20038;-70
2023/07/23 09:35:30;;;;;;;7.60;5.05;;;;;;;22.70;52.46;98607.78;4959455;28;20126;-70
2023/07/23 09:37:57;;;;;;;6.35;5.25;;;;;;;22.61;52.33;98615.34;4957801;28;20805;-70
2023/07/23 09:40:32;;;;;;;5.28;4.20;;;;;;;22.39;53.54;98612.03;4974537;28;20050;-70
2023/07/23 09:42:57;;;;;;;6.15;4.20;;;;;;;21.99;54.08;98618.50;4957718;28;20038;-69
2023/07/23 09:45:23;;;;;;;5.78;4.03;;;;;;;21.78;55.11;98614.06;4959038;28;20042;-71
2023/07/23 09:47:49;;;;;;;6.03;4.43;;;;;;;21.66;55.52;98621.97;4941569;28;20042;-69
2023/07/23 09:50:16;;;;;;;9.07;5.07;;;;;;;21.60;55.97;98611.94;4953893;28;20049;-69
2023/07/23 09:52:41;;;;;;;6.80;5.00;;;;;;;21.61;56.25;98623.63;4939369;28;20497;-70
2023/07/23 09:55:08;;;;;;;6.47;4.72;;;;;;;21.44;57.01;98617.75;4954447;28;20497;-70
2023/07/23 09:57:35;;;;;;;7.72;5.55;;;;;;;21.01;59.16;98617.94;4938183;28;20058;-70
2023/07/23 10:00:02;;;;;;;6.07;5.28;;;;;;;20.81;59.89;98632.41;4952123;28;20527;-69
2023/07/23 10:02:39;;;;;;;8.13;4.85;;;;;;;20.72;60.36;98617.38;4958120;28;20082;-70
2023/07/23 10:05:06;;;;;;;5.78;4.95;;;;;;;20.77;60.25;98615.72;4942343;28;20038;-70
2023/07/23 10:07:32;;;;;;;6.95;5.28;;;;;;;20.90;60.06;98614.97;4956809;28;20043;-69
2023/07/23 10:10:00;;;;;;;6.25;4.55;;;;;;;20.96;59.53;98620.44;4940148;28;20413;-70
2023/07/23 10:12:25;;;;;;;5.82;4.65;;;;;;;21.25;59.09;98605.78;4925850;28;20413;-68
2023/07/23 10:14:51;;;;;;;6.03;5.25;;;;;;;21.78;58.68;98597.78;4944932;28;20485;-68
2023/07/23 10:17:20;;;;;;;5.55;4.70;;;;;;;22.35;57.88;98605.34;4942817;28;20043;-69
2023/07/23 10:19:46;;;;;;;5.82;4.70;;;;;;;22.79;55.82;98596.53;4941886;28;20057;-70
2023/07/23 10:22:12;;;;;;;6.93;5.63;;;;;;;23.13;54.95;98598.09;4942061;28;20054;-70
2023/07/23 10:24:39;;;;;;;7.95;5.00;;;;;;;23.86;53.49;98600.44;4944332;28;20043;-70
2023/07/23 10:27:14;;;;;;;6.53;4.40;;;;;;;24.59;51.29;98595.25;4956673;28;20054;-70
2023/07/23 10:29:41;;;;;;;5.95;4.50;;;;;;;24.84;49.86;98559.72;4942141;28;20501;-70
2023/07/23 10:32:23;;;;;;;6.18;4.65;;;;;;;24.98;49.46;98604.06;4940948;28;20556;-70
2023/07/23 10:34:48;;;;;;;6.03;4.80;;;;;;;24.46;49.66;98593.50;4942726;28;20046;-70
2023/07/23 10:37:19;;;;;;;4.53;4.05;;;;;;;24.08;50.02;98601.72;4941622;28;20079;-70
2023/07/23 10:39:51;;;;;;;4.40;4.00;;;;;;;23.71;51.49;98589.00;4956688;28;20425;-70
2023/07/23 10:42:28;;;;;;;6.10;4.68;;;;;;;23.48;52.31;98595.81;4939666;28;20445;-69
2023/07/23 10:45:22;;;;;;;4.88;4.38;;;;;;;23.14;53.09;98596.19;4943030;28;20053;-68
2023/07/23 10:47:53;;;;;;;7.75;4.55;;;;;;;22.81;53.68;98608.00;4941714;28;20054;-68
2023/07/23 10:50:20;;;;;;;7.05;4.90;;;;;;;22.79;53.68;98609.28;4940098;28;20057;-69
2023/07/23 10:52:46;;;;;;;5.93;5.07;;;;;;;22.88;53.82;98609.88;4955337;28;20054;-69
2023/07/23 10:55:12;;;;;;;6.60;4.57;;;;;;;23.05;53.35;98627.38;4938244;28;20042;-70
2023/07/23 10:57:42;;;;;;;4.70;4.30;;;;;;;23.38;51.91;98595.44;4938217;28;20049;-68
2023/07/23 11:00:21;;;;;;;5.43;4.50;;;;;;;23.48;51.84;98584.09;4938506;28;20047;-71
2023/07/23 11:02:49;;;;;;;5.40;4.63;;;;;;;23.39;51.45;98599.84;4953034;28;20560;-70
2023/07/23 11:05:15;;;;;;;5.13;4.63;;;;;;;23.31;51.78;98582.94;4957432;28;20513;-69
2023/07/23 11:07:40;;;;;;;5.80;4.38;;;;;;;23.05;51.86;98586.59;4972754;28;20539;-70
2023/07/23 11:10:20;;;;;;;10.00;4.72;;;;;;;23.00;52.60;98589.16;4957514;28;20074;-72
2023/07/23 11:12:46;;;;;;;5.93;4.85;;;;;;;22.73;52.96;98608.22;4956471;28;20049;-71
2023/07/23 11:15:16;;;;;;;10.88;5.22;;;;;;;22.75;53.41;98599.84;4957610;28;20050;-71
2023/07/23 11:17:41;;;;;;;6.20;4.40;;;;;;;22.51;53.59;98582.34;4952496;28;20073;-69
2023/07/23 11:20:07;;;;;;;6.93;4.85;;;;;;;22.41;53.41;98582.78;4938945;28;20053;-69
2023/07/23 11:22:33;;;;;;;4.90;4.50;;;;;;;22.19;53.40;98577.78;4944456;28;20406;-69
2023/07/23 11:24:58;;;;;;;5.15;4.35;;;;;;;21.96;54.70;98561.88;4971499;28;20046;-70
2023/07/23 11:27:23;;;;;;;5.88;4.18;;;;;;;21.83;55.19;98584.44;4972476;28;20046;-70
2023/07/23 11:29:49;;;;;;;5.53;4.78;;;;;;;21.64;55.96;98591.50;4965503;28;20042;-68
2023/07/23 11:32:14;;;;;;;5.95;4.30;;;;;;;21.53;56.53;98578.53;4969606;28;20046;-69